createdAt,value
2022-08-22T00:09:05.887Z,51
2022-08-22T00:32:44.895Z,51.5
2022-08-22T01:03:35.486Z,52
2022-08-22T01:42:11.659Z,53
2022-08-22T02:05:39.477Z,53
2022-08-22T02:36:52.837Z,54
2022-08-22T03:07:43.670Z,56
2022-08-22T03:30:49.048Z,57
2022-08-22T04:25:08.023Z,59
2022-08-22T04:48:36.072Z,59.5
2022-08-22T05:11:41.481Z,59
2022-08-22T05:43:06.345Z,59.5
2022-08-22T06:13:45.867Z,59
2022-08-22T06:52:44.725Z,57.5
2022-08-22T07:08:15.660Z,58
2022-08-22T07:47:02.829Z,56
2022-08-22T08:18:04.458Z,53.5
2022-08-22T08:41:09.384Z,52.5
2022-08-22T09:12:33.411Z,53
2022-08-22T09:20:07.461Z,53.5
2022-08-22T09:58:42.963Z,54.5
2022-08-22T10:22:21.596Z,52.5
2022-08-22T10:53:11.580Z,50
2022-08-22T11:31:58.115Z,48
2022-08-22T11:47:39.839Z,46.5
2022-08-22T12:10:57.839Z,40
2022-08-22T12:33:48.378Z,38
2022-08-22T13:04:48.933Z,32
2022-08-22T13:51:18.042Z,23.5
2022-08-22T14:14:42.699Z,14
2022-08-22T14:30:10.901Z,11
2022-08-22T15:08:51.202Z,10
2022-08-22T15:32:03.779Z,10
2022-08-22T15:47:32.208Z,10
2022-08-22T16:10:33.715Z,11
2022-08-22T16:41:53.777Z,11
2022-08-22T17:05:07.110Z,11.5
2022-08-22T17:35:54.252Z,16
2022-08-22T17:51:35.221Z,19.5
2022-08-22T18:22:35.540Z,29
2022-08-22T18:45:51.166Z,32.5
2022-08-22T19:24:26.204Z,36.5
2022-08-22T19:39:56.755Z,36
2022-08-22T20:11:09.215Z,36
2022-08-22T20:34:02.501Z,36
2022-08-22T21:05:26.329Z,36.5
2022-08-22T21:28:42.249Z,36.5
2022-08-22T21:51:35.628Z,37
2022-08-22T22:22:37.055Z,38.5
2022-08-22T22:46:04.495Z,39.5
2022-08-22T23:01:46.620Z,40.5
2022-08-22T23:24:51.571Z,41.5
